Time;durP1;ratioP1;P1;durP2;ratioP2;P2;SDS_P1;SDS_P2;PMS_P1;PMS_P2;Temp;Humidity;BMP_temperature;BMP_pressure;BME280_temperature;BME280_humidity;BME280_pressure;Samples;Min_cycle;Max_cycle;Signal;HPM_P1;HPM_P2
2022/01/20 00:01:11;;;;;;;14.93;9.40;;;;;;;;;;4954437;28;20181;-79
2022/01/20 00:03:41;;;;;;;11.27;8.50;;;;;;;;;;4952077;28;20602;-79
2022/01/20 00:27:37;;;;;;;13.87;9.67;;;;;;;;;;4965348;28;20824;-78
2022/01/20 00:33:55;;;;;;;12.83;8.80;;;;;;;;;;4964980;28;20189;-78
2022/01/20 00:38:25;;;;;;;12.20;8.57;;;;;;;;;;4951750;28;20263;-77
2022/01/20 00:40:51;;;;;;;13.07;8.73;;;;;;;;;;4953765;28;20292;-77
2022/01/20 00:43:18;;;;;;;12.00;8.27;;;;;;;;;;4953269;28;20267;-77
2022/01/20 00:45:46;;;;;;;11.20;8.00;;;;;;;;;;4954605;28;20190;-77
2022/01/20 00:48:12;;;;;;;10.83;8.07;;;;;;;;;;4968871;28;20189;-77
2022/01/20 00:50:39;;;;;;;11.33;8.30;;;;;;;;;;4969381;28;20231;-77
2022/01/20 00:53:05;;;;;;;11.90;8.83;;;;;;;;;;4953561;29;20204;-77
2022/01/20 00:55:32;;;;;;;12.53;9.10;;;;;;;;;;4950825;28;20209;-78
2022/01/20 00:57:59;;;;;;;10.80;8.17;;;;;;;;;;4951332;28;20189;-78
2022/01/20 01:00:28;;;;;;;11.93;8.10;;;;;;;;;;4954260;28;20193;-79
2022/01/20 01:02:56;;;;;;;11.73;8.67;;;;;;;;;;4950510;28;20754;-79
2022/01/20 01:05:24;;;;;;;11.90;8.73;;;;;;;;;;4951735;28;20209;-79
2022/01/20 01:07:52;;;;;;;14.53;9.60;;;;;;;;;;4961435;28;20173;-78
2022/01/20 01:10:39;;;;;;;13.40;9.60;;;;;;;;;;4956627;28;20196;-79
2022/01/20 01:13:12;;;;;;;10.30;7.50;;;;;;;;;;4968528;28;20240;-79
2022/01/20 01:15:43;;;;;;;14.53;9.87;;;;;;;;;;4959915;28;20289;-79
2022/01/20 01:23:36;;;;;;;11.43;8.30;;;;;;;;;;4939945;28;20268;-78
2022/01/20 01:26:14;;;;;;;13.30;9.07;;;;;;;;;;4968105;28;20169;-78
2022/01/20 01:28:41;;;;;;;14.13;10.40;;;;;;;;;;4934987;29;20170;-78
2022/01/20 01:33:58;;;;;;;12.97;8.73;;;;;;;;;;4956198;28;20256;-77
2022/01/20 01:36:28;;;;;;;11.53;7.73;;;;;;;;;;4952693;28;20574;-78
2022/01/20 01:38:54;;;;;;;12.53;7.87;;;;;;;;;;4960850;28;20204;-78
2022/01/20 01:41:31;;;;;;;12.17;8.57;;;;;;;;;;4957323;28;20193;-77
2022/01/20 01:44:01;;;;;;;13.80;8.30;;;;;;;;;;4952533;28;20243;-78
2022/01/20 01:46:28;;;;;;;12.37;8.00;;;;;;;;;;4955184;28;20189;-78
2022/01/20 01:48:56;;;;;;;11.23;7.67;;;;;;;;;;4952976;29;20181;-78
2022/01/20 01:51:22;;;;;;;11.07;8.20;;;;;;;;;;4954287;29;20189;-78
2022/01/20 01:53:48;;;;;;;12.37;8.13;;;;;;;;;;4952598;29;20232;-78
2022/01/20 01:56:15;;;;;;;10.80;8.00;;;;;;;;;;4958500;28;20190;-78
2022/01/20 01:58:41;;;;;;;11.27;7.87;;;;;;;;;;4970415;28;20264;-78
2022/01/20 02:01:17;;;;;;;9.13;6.70;;;;;;;;;;4970249;28;20176;-78
2022/01/20 02:03:57;;;;;;;11.00;8.27;;;;;;;;;;4947207;29;20236;-78
2022/01/20 02:06:51;;;;;;;10.60;7.77;;;;;;;;;;4949587;28;20181;-78
2022/01/20 02:19:58;;;;;;;8.07;6.20;;;;;;;;;;4963032;28;20181;-79
2022/01/20 02:22:45;;;;;;;9.03;6.90;;;;;;;;;;4953854;28;20588;-78
2022/01/20 02:25:25;;;;;;;9.27;6.57;;;;;;;;;;4933649;28;20197;-79
2022/01/20 02:27:52;;;;;;;7.87;6.27;;;;;;;;;;4976640;28;20385;-79
2022/01/20 02:30:19;;;;;;;7.43;6.00;;;;;;;;;;4952670;29;20194;-79
2022/01/20 02:32:56;;;;;;;6.90;5.80;;;;;;;;;;4934133;29;20514;-77
2022/01/20 02:35:24;;;;;;;7.57;5.57;;;;;;;;;;4942641;28;20217;-78
2022/01/20 02:38:12;;;;;;;8.27;6.20;;;;;;;;;;4950633;28;20203;-78
2022/01/20 02:45:52;;;;;;;8.17;6.30;;;;;;;;;;4949057;28;20665;-78
2022/01/20 02:48:19;;;;;;;8.43;6.10;;;;;;;;;;4951655;28;20209;-79
2022/01/20 02:50:45;;;;;;;9.50;6.80;;;;;;;;;;4961369;28;20185;-79
2022/01/20 02:53:11;;;;;;;8.00;6.53;;;;;;;;;;4965887;28;20213;-79
2022/01/20 02:55:37;;;;;;;7.53;6.07;;;;;;;;;;4949550;28;20201;-79
2022/01/20 02:58:03;;;;;;;8.83;6.40;;;;;;;;;;4952434;28;20181;-79
2022/01/20 03:00:30;;;;;;;7.90;5.77;;;;;;;;;;4963512;28;20197;-78
2022/01/20 03:02:57;;;;;;;8.50;6.40;;;;;;;;;;4953458;28;20711;-78
2022/01/20 03:05:24;;;;;;;8.00;6.40;;;;;;;;;;4948370;28;20581;-78
2022/01/20 03:08:00;;;;;;;8.80;6.57;;;;;;;;;;4949530;28;20188;-78
2022/01/20 03:10:26;;;;;;;7.53;6.33;;;;;;;;;;4951362;28;20185;-78
2022/01/20 03:12:52;;;;;;;9.87;7.23;;;;;;;;;;4949941;28;20201;-78
2022/01/20 03:15:19;;;;;;;9.43;7.10;;;;;;;;;;4945886;28;20268;-78
2022/01/20 03:17:45;;;;;;;9.67;6.77;;;;;;;;;;4952247;28;20190;-78
2022/01/20 03:20:11;;;;;;;8.73;6.87;;;;;;;;;;4954841;28;20276;-77
2022/01/20 03:22:38;;;;;;;11.23;7.27;;;;;;;;;;4949362;28;20251;-77
2022/01/20 03:25:04;;;;;;;7.23;5.93;;;;;;;;;;4952605;28;20212;-78
2022/01/20 03:27:30;;;;;;;9.33;7.10;;;;;;;;;;4945957;28;20209;-79
2022/01/20 03:29:57;;;;;;;8.67;6.73;;;;;;;;;;4945237;28;20525;-78
2022/01/20 03:32:24;;;;;;;7.50;5.60;;;;;;;;;;4945748;28;20193;-78
2022/01/20 03:34:50;;;;;;;6.77;5.27;;;;;;;;;;4964296;28;20723;-81
2022/01/20 03:37:18;;;;;;;6.97;5.40;;;;;;;;;;4931679;28;20240;-78
2022/01/20 03:39:56;;;;;;;7.43;6.17;;;;;;;;;;4964050;28;20185;-78
2022/01/20 03:42:22;;;;;;;7.67;5.80;;;;;;;;;;4949214;28;20568;-78
2022/01/20 03:44:48;;;;;;;8.13;6.30;;;;;;;;;;4958356;28;20268;-78
2022/01/20 03:47:15;;;;;;;7.37;5.87;;;;;;;;;;4948521;28;20181;-77
2022/01/20 03:49:55;;;;;;;8.37;6.47;;;;;;;;;;4944109;28;20680;-77
2022/01/20 03:52:21;;;;;;;6.77;5.33;;;;;;;;;;4955697;28;20205;-77
2022/01/20 03:54:48;;;;;;;7.63;5.83;;;;;;;;;;4957960;28;20210;-79
2022/01/20 03:57:17;;;;;;;7.73;6.40;;;;;;;;;;4949247;28;20277;-78
2022/01/20 03:59:53;;;;;;;6.90;6.03;;;;;;;;;;4949003;28;20192;-78
2022/01/20 04:02:29;;;;;;;6.83;5.60;;;;;;;;;;4952026;28;20371;-78
2022/01/20 04:05:08;;;;;;;6.57;5.37;;;;;;;;;;4951302;28;20280;-78
2022/01/20 04:07:39;;;;;;;6.73;5.80;;;;;;;;;;4962964;28;20185;-78
2022/01/20 04:10:05;;;;;;;6.27;5.00;;;;;;;;;;4949127;28;20805;-77
2022/01/20 04:12:32;;;;;;;6.20;5.33;;;;;;;;;;4932976;28;20216;-77
2022/01/20 04:15:05;;;;;;;6.87;5.53;;;;;;;;;;4947665;28;20216;-77
2022/01/20 04:17:32;;;;;;;6.83;5.60;;;;;;;;;;4962857;28;20189;-77
2022/01/20 04:19:58;;;;;;;5.90;4.80;;;;;;;;;;4949052;28;20189;-77
2022/01/20 04:22:26;;;;;;;7.13;5.33;;;;;;;;;;4963628;28;20193;-79
2022/01/20 04:24:53;;;;;;;7.77;5.97;;;;;;;;;;4952661;28;20216;-78
2022/01/20 04:27:19;;;;;;;5.70;4.63;;;;;;;;;;4950773;28;20185;-78
2022/01/20 04:29:45;;;;;;;7.50;6.07;;;;;;;;;;4950970;28;20196;-77
2022/01/20 04:32:11;;;;;;;6.83;5.63;;;;;;;;;;4934490;28;20200;-77
2022/01/20 04:34:38;;;;;;;7.67;5.47;;;;;;;;;;4952139;28;20201;-77
2022/01/20 04:37:05;;;;;;;6.67;5.40;;;;;;;;;;4953504;28;20669;-78
2022/01/20 04:39:35;;;;;;;5.43;4.93;;;;;;;;;;4954149;28;20208;-78
2022/01/20 04:42:01;;;;;;;6.83;5.80;;;;;;;;;;4951028;28;20189;-78
2022/01/20 04:45:13;;;;;;;8.10;6.33;;;;;;;;;;4950479;28;20209;-77
2022/01/20 04:58:06;;;;;;;8.40;6.27;;;;;;;;;;4948396;28;20310;-77
2022/01/20 05:00:32;;;;;;;7.00;5.40;;;;;;;;;;4951080;28;20279;-77
2022/01/20 05:03:17;;;;;;;6.90;5.77;;;;;;;;;;4945931;28;20206;-77
2022/01/20 05:05:45;;;;;;;10.50;7.13;;;;;;;;;;4964514;28;20192;-79
2022/01/20 05:08:22;;;;;;;7.97;6.50;;;;;;;;;;4949636;28;20185;-77
2022/01/20 05:10:49;;;;;;;7.13;5.77;;;;;;;;;;4947537;28;20186;-77
2022/01/20 05:13:24;;;;;;;6.73;5.73;;;;;;;;;;4949925;28;20232;-77
2022/01/20 05:15:50;;;;;;;9.33;6.70;;;;;;;;;;4946974;28;20181;-78
2022/01/20 05:18:17;;;;;;;8.90;6.73;;;;;;;;;;4950127;28;20193;-78
2022/01/20 05:20:48;;;;;;;8.30;6.40;;;;;;;;;;4965534;28;20221;-78
2022/01/20 05:23:14;;;;;;;10.23;6.93;;;;;;;;;;4931122;28;20578;-77
2022/01/20 05:25:40;;;;;;;9.10;6.70;;;;;;;;;;4945699;28;20652;-77
2022/01/20 05:28:07;;;;;;;12.60;6.90;;;;;;;;;;4962269;28;20217;-77
2022/01/20 05:30:34;;;;;;;8.33;6.70;;;;;;;;;;4968920;28;20245;-78
2022/01/20 05:33:30;;;;;;;7.70;6.43;;;;;;;;;;4960614;28;20689;-78
2022/01/20 05:35:57;;;;;;;7.70;6.20;;;;;;;;;;4946402;28;20197;-77
2022/01/20 05:38:23;;;;;;;9.87;7.50;;;;;;;;;;4947390;28;20554;-78
2022/01/20 05:40:51;;;;;;;8.83;7.10;;;;;;;;;;4946497;28;20227;-77
2022/01/20 05:43:18;;;;;;;8.30;6.20;;;;;;;;;;4950942;28;20221;-78
2022/01/20 05:45:48;;;;;;;11.67;7.93;;;;;;;;;;4949664;28;20182;-78
2022/01/20 05:48:17;;;;;;;9.10;6.70;;;;;;;;;;4947850;28;20204;-78
2022/01/20 05:50:55;;;;;;;11.77;7.80;;;;;;;;;;4955732;28;20185;-78
2022/01/20 05:53:22;;;;;;;10.00;7.30;;;;;;;;;;4965505;28;20275;-77
2022/01/20 05:55:48;;;;;;;10.93;7.33;;;;;;;;;;4966698;28;20275;-77
2022/01/20 05:58:15;;;;;;;12.20;6.93;;;;;;;;;;4946586;28;20217;-79
2022/01/20 06:00:42;;;;;;;13.43;8.37;;;;;;;;;;4947092;28;20938;-78
2022/01/20 06:05:54;;;;;;;11.93;7.10;;;;;;;;;;4956658;28;20534;-78
2022/01/20 06:08:20;;;;;;;14.27;8.37;;;;;;;;;;4947882;28;20284;-78
2022/01/20 06:10:47;;;;;;;9.63;6.77;;;;;;;;;;4949869;28;20181;-78
2022/01/20 06:13:20;;;;;;;9.40;6.83;;;;;;;;;;4946548;28;20193;-77
2022/01/20 06:15:46;;;;;;;10.70;6.93;;;;;;;;;;4944474;28;20185;-77
2022/01/20 06:18:12;;;;;;;10.07;6.87;;;;;;;;;;4943045;28;20248;-78
2022/01/20 06:20:44;;;;;;;11.03;7.23;;;;;;;;;;4934245;28;20185;-77
2022/01/20 06:23:11;;;;;;;8.73;7.13;;;;;;;;;;4958135;28;20577;-76
2022/01/20 06:25:39;;;;;;;9.00;6.83;;;;;;;;;;4944562;28;20216;-76
2022/01/20 06:28:07;;;;;;;10.40;6.30;;;;;;;;;;4953685;28;20650;-76
2022/01/20 06:30:33;;;;;;;11.63;6.97;;;;;;;;;;4957864;28;20369;-77
2022/01/20 06:33:00;;;;;;;11.57;6.70;;;;;;;;;;4951407;28;20201;-76
2022/01/20 06:35:34;;;;;;;15.90;9.00;;;;;;;;;;4954406;29;20220;-75
2022/01/20 06:38:01;;;;;;;12.30;7.10;;;;;;;;;;4957284;29;20533;-76
2022/01/20 06:40:28;;;;;;;9.93;6.57;;;;;;;;;;4953609;28;20189;-76
2022/01/20 06:42:54;;;;;;;10.63;6.83;;;;;;;;;;4937688;29;20861;-77
2022/01/20 06:45:22;;;;;;;11.27;6.97;;;;;;;;;;4925873;29;20209;-76
2022/01/20 06:47:52;;;;;;;11.90;6.70;;;;;;;;;;4954149;29;20216;-73
2022/01/20 06:50:19;;;;;;;9.27;6.33;;;;;;;;;;4952790;29;21660;-74
2022/01/20 06:52:48;;;;;;;9.47;6.50;;;;;;;;;;4938233;29;20194;-73
2022/01/20 06:55:15;;;;;;;9.70;6.77;;;;;;;;;;4966639;28;20711;-74
2022/01/20 06:57:42;;;;;;;9.93;6.37;;;;;;;;;;4970939;28;20177;-74
2022/01/20 07:00:09;;;;;;;8.10;5.87;;;;;;;;;;4950104;28;20185;-74
2022/01/20 07:02:36;;;;;;;8.80;6.07;;;;;;;;;;4950014;29;20708;-74
2022/01/20 07:05:02;;;;;;;9.53;6.40;;;;;;;;;;4949265;28;20245;-74
2022/01/20 07:07:29;;;;;;;9.37;6.67;;;;;;;;;;4950481;29;20217;-74
2022/01/20 07:10:13;;;;;;;12.43;7.90;;;;;;;;;;4937403;29;20177;-77
2022/01/20 07:12:46;;;;;;;12.37;7.57;;;;;;;;;;4949142;29;20198;-74
2022/01/20 07:15:13;;;;;;;9.73;6.90;;;;;;;;;;4948754;29;20276;-75
2022/01/20 07:17:40;;;;;;;11.37;7.00;;;;;;;;;;4953390;28;20218;-79
2022/01/20 07:20:06;;;;;;;12.10;7.30;;;;;;;;;;4956126;28;20244;-84
2022/01/20 07:22:38;;;;;;;9.70;7.23;;;;;;;;;;4956107;29;20274;-81
2022/01/20 07:25:06;;;;;;;8.73;6.77;;;;;;;;;;4958319;28;20263;-81
2022/01/20 07:27:46;;;;;;;10.70;6.80;;;;;;;;;;4957704;29;20245;-83
2022/01/20 07:30:12;;;;;;;10.20;6.80;;;;;;;;;;4937592;29;20182;-80
2022/01/20 07:32:40;;;;;;;9.50;6.83;;;;;;;;;;4986514;28;20195;-80
2022/01/20 07:35:08;;;;;;;10.00;7.50;;;;;;;;;;4925801;29;20205;-80
2022/01/20 07:37:35;;;;;;;9.67;7.53;;;;;;;;;;4954370;28;20185;-80
2022/01/20 07:40:01;;;;;;;10.53;6.90;;;;;;;;;;4954438;29;20189;-79
2022/01/20 07:42:28;;;;;;;10.17;7.30;;;;;;;;;;4938890;29;20185;-80
2022/01/20 07:45:04;;;;;;;11.07;7.23;;;;;;;;;;4954923;28;20211;-79
2022/01/20 07:47:41;;;;;;;9.93;7.27;;;;;;;;;;4954722;28;20271;-79
2022/01/20 07:50:07;;;;;;;11.83;7.80;;;;;;;;;;4924186;29;20228;-82
2022/01/20 07:52:33;;;;;;;10.47;6.90;;;;;;;;;;4939212;28;20212;-83
2022/01/20 07:55:00;;;;;;;10.67;7.50;;;;;;;;;;4954122;29;20581;-82
2022/01/20 07:57:27;;;;;;;13.93;7.80;;;;;;;;;;4937488;28;20189;-83
2022/01/20 07:59:53;;;;;;;10.60;7.10;;;;;;;;;;4933691;29;20261;-83
2022/01/20 08:02:24;;;;;;;10.33;7.17;;;;;;;;;;4951005;29;20567;-83
2022/01/20 08:04:50;;;;;;;11.50;7.17;;;;;;;;;;4961103;28;20212;-83
2022/01/20 08:07:18;;;;;;;12.47;7.53;;;;;;;;;;4969664;28;20196;-83
2022/01/20 08:09:45;;;;;;;12.87;7.40;;;;;;;;;;4949811;29;20193;-83
2022/01/20 08:12:23;;;;;;;12.07;7.00;;;;;;;;;;4937350;29;20181;-83
2022/01/20 08:15:12;;;;;;;12.03;7.70;;;;;;;;;;4967643;28;20213;-83
2022/01/20 08:18:11;;;;;;;11.50;6.87;;;;;;;;;;4951771;28;20547;-84
2022/01/20 08:20:37;;;;;;;10.97;7.60;;;;;;;;;;4951681;28;20264;-83
2022/01/20 08:23:06;;;;;;;17.17;8.73;;;;;;;;;;4951653;28;20216;-83
2022/01/20 08:25:33;;;;;;;25.60;12.43;;;;;;;;;;4917673;29;20268;-84
2022/01/20 08:28:00;;;;;;;17.33;9.73;;;;;;;;;;4934748;29;20209;-83
2022/01/20 08:30:27;;;;;;;18.63;9.20;;;;;;;;;;4966677;28;20222;-84
2022/01/20 08:32:56;;;;;;;13.80;8.50;;;;;;;;;;4968264;28;20964;-84
2022/01/20 08:35:32;;;;;;;12.97;8.67;;;;;;;;;;4967404;28;20307;-83
2022/01/20 08:38:06;;;;;;;15.53;8.13;;;;;;;;;;4951932;28;20193;-83
2022/01/20 08:40:32;;;;;;;12.03;7.93;;;;;;;;;;4951604;29;20283;-84
2022/01/20 08:42:59;;;;;;;12.50;7.70;;;;;;;;;;4950905;28;20280;-84
2022/01/20 08:45:30;;;;;;;11.97;7.10;;;;;;;;;;4919296;29;20217;-83
2022/01/20 08:47:57;;;;;;;11.20;6.93;;;;;;;;;;4935502;29;20161;-82
2022/01/20 08:50:30;;;;;;;11.13;7.20;;;;;;;;;;4955524;29;20189;-76
2022/01/20 08:52:56;;;;;;;21.97;12.03;;;;;;;;;;4958949;28;20180;-80
2022/01/20 08:55:24;;;;;;;16.20;9.00;;;;;;;;;;4957658;28;20208;-79
2022/01/20 08:57:53;;;;;;;15.43;8.40;;;;;;;;;;4953836;28;20192;-81
2022/01/20 09:00:20;;;;;;;12.90;8.10;;;;;;;;;;4963813;28;20618;-81
2022/01/20 09:02:58;;;;;;;12.67;7.50;;;;;;;;;;4965693;28;20215;-78
2022/01/20 09:05:25;;;;;;;14.83;6.77;;;;;;;;;;4954589;28;20197;-78
2022/01/20 09:08:06;;;;;;;15.17;7.13;;;;;;;;;;4950524;28;20533;-79
2022/01/20 09:10:38;;;;;;;27.67;14.67;;;;;;;;;;4970995;28;20185;-81
2022/01/20 09:15:55;;;;;;;11.60;6.83;;;;;;;;;;4949555;28;20189;-81
2022/01/20 09:18:41;;;;;;;10.27;6.60;;;;;;;;;;4954236;28;20196;-81
2022/01/20 09:21:07;;;;;;;13.97;6.40;;;;;;;;;;4967641;28;20204;-80
2022/01/20 09:23:34;;;;;;;11.07;6.00;;;;;;;;;;4937149;29;20868;-80
2022/01/20 09:26:01;;;;;;;11.70;5.87;;;;;;;;;;4972957;28;20174;-79
2022/01/20 09:28:30;;;;;;;11.20;5.03;;;;;;;;;;4951506;28;20843;-81
2022/01/20 09:31:00;;;;;;;11.07;5.13;;;;;;;;;;4974951;28;20182;-81
2022/01/20 09:33:28;;;;;;;12.50;3.53;;;;;;;;;;4969512;28;20678;-81
2022/01/20 09:35:58;;;;;;;13.53;3.27;;;;;;;;;;4964175;28;20190;-78
2022/01/20 09:38:24;;;;;;;9.07;3.03;;;;;;;;;;4947664;28;20228;-78
2022/01/20 09:40:51;;;;;;;10.63;3.63;;;;;;;;;;4948194;28;20189;-78
2022/01/20 09:43:17;;;;;;;9.90;3.30;;;;;;;;;;4955836;28;20208;-78
2022/01/20 09:45:50;;;;;;;10.60;3.30;;;;;;;;;;4972141;28;20236;-75
2022/01/20 09:48:17;;;;;;;10.93;3.37;;;;;;;;;;4933262;28;20597;-76
2022/01/20 09:51:03;;;;;;;14.13;3.30;;;;;;;;;;4951969;28;20201;-78
2022/01/20 09:53:48;;;;;;;10.40;3.10;;;;;;;;;;4949309;28;20585;-76
2022/01/20 09:56:35;;;;;;;10.90;3.83;;;;;;;;;;4974402;28;20529;-77
2022/01/20 09:59:02;;;;;;;10.00;3.50;;;;;;;;;;4958447;28;20189;-75
2022/01/20 10:01:34;;;;;;;5.90;2.47;;;;;;;;;;4947799;28;20224;-78
2022/01/20 10:04:00;;;;;;;7.53;2.43;;;;;;;;;;4971514;28;20217;-78
2022/01/20 10:06:27;;;;;;;7.97;2.37;;;;;;;;;;4974276;28;20257;-77
2022/01/20 10:09:04;;;;;;;7.03;2.37;;;;;;;;;;4974843;28;20181;-78
2022/01/20 10:11:49;;;;;;;4.63;2.13;;;;;;;;;;4953731;28;20685;-78
2022/01/20 10:14:38;;;;;;;5.90;2.17;;;;;;;;;;4953227;28;20303;-78
2022/01/20 10:17:40;;;;;;;7.80;2.40;;;;;;;;;;4952986;28;20189;-80
2022/01/20 10:20:08;;;;;;;6.20;2.30;;;;;;;;;;4977071;28;20257;-80
2022/01/20 10:22:42;;;;;;;5.63;2.13;;;;;;;;;;4975627;28;20326;-78
2022/01/20 10:25:17;;;;;;;9.07;2.73;;;;;;;;;;4951170;28;20363;-78
2022/01/20 10:28:13;;;;;;;6.60;2.67;;;;;;;;;;4958489;28;20201;-78
2022/01/20 10:30:41;;;;;;;7.73;3.20;;;;;;;;;;4975860;28;20170;-77
2022/01/20 10:33:07;;;;;;;7.93;2.47;;;;;;;;;;4974618;28;20283;-78
2022/01/20 10:35:40;;;;;;;6.43;2.23;;;;;;;;;;4970134;28;20252;-79
2022/01/20 10:38:27;;;;;;;6.40;2.37;;;;;;;;;;4965688;28;20204;-79
2022/01/20 10:40:59;;;;;;;9.00;3.23;;;;;;;;;;4916294;29;20548;-79
2022/01/20 10:43:31;;;;;;;8.07;2.90;;;;;;;;;;4965989;28;20696;-79
2022/01/20 10:46:02;;;;;;;6.30;2.50;;;;;;;;;;4949712;29;20282;-79
2022/01/20 10:48:28;;;;;;;17.10;3.13;;;;;;;;;;4965885;28;20184;-79
2022/01/20 10:50:56;;;;;;;7.17;3.07;;;;;;;;;;4965234;28;20594;-79
2022/01/20 10:53:22;;;;;;;7.10;2.73;;;;;;;;;;4950406;28;20190;-80
2022/01/20 10:55:50;;;;;;;9.77;3.03;;;;;;;;;;4951136;28;20181;-78
2022/01/20 10:58:22;;;;;;;11.50;3.60;;;;;;;;;;4949445;29;20551;-76
2022/01/20 11:00:50;;;;;;;15.87;3.40;;;;;;;;;;4951028;28;20711;-78
2022/01/20 11:03:18;;;;;;;11.87;3.63;;;;;;;;;;4963218;28;20217;-79
2022/01/20 11:05:49;;;;;;;11.23;3.23;;;;;;;;;;4936721;29;20209;-74
2022/01/20 11:08:39;;;;;;;10.77;3.43;;;;;;;;;;4944964;29;20276;-76
2022/01/20 11:11:08;;;;;;;9.87;3.10;;;;;;;;;;4945464;28;20191;-76
2022/01/20 11:13:52;;;;;;;13.50;4.13;;;;;;;;;;4937926;29;20226;-76
2022/01/20 11:16:21;;;;;;;8.37;3.70;;;;;;;;;;4951981;29;20193;-77
2022/01/20 11:18:48;;;;;;;9.77;2.70;;;;;;;;;;4930492;28;20181;-77
2022/01/20 11:21:27;;;;;;;12.77;2.70;;;;;;;;;;4949036;28;20176;-77
2022/01/20 11:23:54;;;;;;;7.83;2.80;;;;;;;;;;4947575;28;20236;-78
2022/01/20 11:26:51;;;;;;;8.63;2.70;;;;;;;;;;4943037;29;20174;-77
2022/01/20 11:29:40;;;;;;;10.47;2.83;;;;;;;;;;4932757;29;20217;-76
2022/01/20 11:32:33;;;;;;;10.50;2.80;;;;;;;;;;4939284;29;20181;-75
2022/01/20 11:35:08;;;;;;;12.67;2.83;;;;;;;;;;4946829;29;20220;-75
2022/01/20 11:37:36;;;;;;;7.93;2.67;;;;;;;;;;4957480;28;20182;-76
2022/01/20 11:40:11;;;;;;;12.03;2.53;;;;;;;;;;4945326;29;20228;-76
2022/01/20 11:42:37;;;;;;;12.53;2.60;;;;;;;;;;4945052;28;20259;-75
2022/01/20 11:45:43;;;;;;;6.07;2.60;;;;;;;;;;4940990;29;20201;-75
2022/01/20 11:48:16;;;;;;;8.30;2.50;;;;;;;;;;4907933;29;20187;-76
2022/01/20 11:50:43;;;;;;;9.37;2.80;;;;;;;;;;4911175;29;20201;-76
2022/01/20 11:53:19;;;;;;;9.57;2.60;;;;;;;;;;4933802;28;20268;-76
2022/01/20 11:55:50;;;;;;;7.33;2.70;;;;;;;;;;4952534;28;20215;-75
2022/01/20 11:58:19;;;;;;;6.80;2.77;;;;;;;;;;4951924;28;20265;-76
2022/01/20 12:00:56;;;;;;;6.27;2.70;;;;;;;;;;4948180;28;20877;-76
2022/01/20 12:03:22;;;;;;;8.97;2.83;;;;;;;;;;4947764;29;20243;-75
2022/01/20 12:06:02;;;;;;;6.57;2.60;;;;;;;;;;4949622;28;20216;-76
2022/01/20 12:08:35;;;;;;;13.03;3.10;;;;;;;;;;4951335;29;20189;-76
2022/01/20 12:11:07;;;;;;;8.37;3.30;;;;;;;;;;4950096;28;20178;-77
2022/01/20 12:13:44;;;;;;;9.30;2.83;;;;;;;;;;4951567;29;20649;-76
2022/01/20 12:16:11;;;;;;;8.17;2.50;;;;;;;;;;4948190;28;20184;-77
2022/01/20 12:18:38;;;;;;;7.60;2.30;;;;;;;;;;4952486;28;20193;-75
2022/01/20 12:21:08;;;;;;;4.33;1.80;;;;;;;;;;4939412;28;20214;-74
2022/01/20 12:23:42;;;;;;;5.73;2.00;;;;;;;;;;4939208;28;20209;-75
2022/01/20 12:26:08;;;;;;;6.03;1.87;;;;;;;;;;4949315;29;20181;-75
2022/01/20 12:28:34;;;;;;;4.93;1.60;;;;;;;;;;4947780;28;20182;-76
2022/01/20 12:31:04;;;;;;;6.17;1.90;;;;;;;;;;4949993;28;20177;-76
2022/01/20 12:33:35;;;;;;;7.97;2.20;;;;;;;;;;4958812;28;20546;-76
2022/01/20 12:36:02;;;;;;;7.67;2.00;;;;;;;;;;4950370;28;20177;-75
2022/01/20 12:38:30;;;;;;;5.70;1.90;;;;;;;;;;4954516;28;20212;-75
2022/01/20 12:41:00;;;;;;;5.40;1.90;;;;;;;;;;4951411;28;20193;-75
2022/01/20 12:43:46;;;;;;;6.57;2.10;;;;;;;;;;4951872;28;20771;-75
2022/01/20 12:46:17;;;;;;;3.53;1.90;;;;;;;;;;4953258;28;20205;-75
2022/01/20 12:48:52;;;;;;;6.10;2.10;;;;;;;;;;4950977;28;20173;-75
2022/01/20 12:51:18;;;;;;;6.97;2.10;;;;;;;;;;4943493;29;20200;-79
2022/01/20 12:53:55;;;;;;;5.20;2.17;;;;;;;;;;4952549;28;20284;-75
2022/01/20 12:56:30;;;;;;;6.97;2.30;;;;;;;;;;4951892;28;20224;-76
2022/01/20 12:58:56;;;;;;;10.10;2.30;;;;;;;;;;4953846;28;20217;-75
2022/01/20 13:01:23;;;;;;;4.83;1.90;;;;;;;;;;4953732;29;20208;-75
2022/01/20 13:03:49;;;;;;;7.00;2.33;;;;;;;;;;4954640;28;20212;-75
2022/01/20 13:06:25;;;;;;;7.83;2.40;;;;;;;;;;4954521;28;20232;-79
2022/01/20 13:09:10;;;;;;;5.17;2.30;;;;;;;;;;4954285;29;20188;-75
2022/01/20 13:11:41;;;;;;;8.00;2.60;;;;;;;;;;4954514;29;20177;-76
2022/01/20 13:14:07;;;;;;;6.73;2.30;;;;;;;;;;4954017;28;20216;-76
2022/01/20 13:16:34;;;;;;;6.20;2.20;;;;;;;;;;4953417;28;20194;-76
2022/01/20 13:19:01;;;;;;;8.47;2.03;;;;;;;;;;4949505;29;20238;-73
2022/01/20 13:21:38;;;;;;;8.50;2.60;;;;;;;;;;4952837;28;20239;-75
2022/01/20 13:24:06;;;;;;;7.50;2.80;;;;;;;;;;4951429;28;20205;-76
2022/01/20 13:26:43;;;;;;;6.93;2.90;;;;;;;;;;4947213;28;20256;-75
2022/01/20 13:29:09;;;;;;;9.67;2.97;;;;;;;;;;4947532;28;20207;-76
2022/01/20 13:31:36;;;;;;;7.57;2.60;;;;;;;;;;4948222;28;20190;-75
2022/01/20 13:34:09;;;;;;;9.40;3.20;;;;;;;;;;4947905;28;20300;-75
2022/01/20 13:36:42;;;;;;;7.57;3.00;;;;;;;;;;4948059;28;20192;-75
2022/01/20 13:39:09;;;;;;;6.37;2.80;;;;;;;;;;4945704;28;20545;-76
2022/01/20 13:41:36;;;;;;;10.50;3.17;;;;;;;;;;4946777;28;20248;-74
2022/01/20 13:47:00;;;;;;;8.47;2.93;;;;;;;;;;4947800;28;20192;-74
2022/01/20 13:49:26;;;;;;;6.63;3.10;;;;;;;;;;4949623;29;20189;-76
2022/01/20 13:52:00;;;;;;;6.63;2.70;;;;;;;;;;4967540;28;20188;-76
2022/01/20 13:54:36;;;;;;;5.27;1.80;;;;;;;;;;4948649;28;20212;-75
2022/01/20 13:57:02;;;;;;;3.50;1.40;;;;;;;;;;4947417;29;20192;-75
2022/01/20 13:59:28;;;;;;;3.37;1.30;;;;;;;;;;4949086;28;20567;-75
2022/01/20 14:01:54;;;;;;;2.77;1.53;;;;;;;;;;4949266;29;20193;-74
2022/01/20 14:04:20;;;;;;;4.07;1.40;;;;;;;;;;4948116;28;20213;-75
2022/01/20 14:06:46;;;;;;;5.30;1.50;;;;;;;;;;4944763;28;20193;-75
2022/01/20 14:09:13;;;;;;;3.93;1.10;;;;;;;;;;4945832;29;20189;-74
2022/01/20 14:11:41;;;;;;;2.80;1.20;;;;;;;;;;4944995;29;20550;-75
2022/01/20 14:14:08;;;;;;;4.00;1.10;;;;;;;;;;4948286;28;20292;-75
2022/01/20 14:16:35;;;;;;;3.30;1.20;;;;;;;;;;4948211;28;21220;-73
2022/01/20 14:19:01;;;;;;;3.43;1.30;;;;;;;;;;4947939;28;20196;-76
2022/01/20 14:21:27;;;;;;;2.30;1.20;;;;;;;;;;4947609;28;20185;-75
2022/01/20 14:23:54;;;;;;;2.73;1.07;;;;;;;;;;4947806;29;20507;-76
2022/01/20 14:26:29;;;;;;;3.50;1.20;;;;;;;;;;4947500;28;20294;-75
2022/01/20 14:28:55;;;;;;;3.03;1.37;;;;;;;;;;4947112;29;20215;-75
2022/01/20 14:31:21;;;;;;;3.93;1.47;;;;;;;;;;4946121;28;20694;-75
2022/01/20 14:33:47;;;;;;;3.97;1.30;;;;;;;;;;4946980;28;20248;-76
2022/01/20 14:36:13;;;;;;;4.90;1.57;;;;;;;;;;4946082;28;20181;-73
2022/01/20 14:38:39;;;;;;;4.73;1.50;;;;;;;;;;4945747;29;20193;-76
2022/01/20 14:41:06;;;;;;;4.20;1.40;;;;;;;;;;4944289;29;20935;-75
2022/01/20 14:43:32;;;;;;;2.77;1.30;;;;;;;;;;4947298;28;20213;-76
2022/01/20 14:45:58;;;;;;;3.30;1.73;;;;;;;;;;4944655;28;20198;-76
2022/01/20 14:48:24;;;;;;;3.87;1.50;;;;;;;;;;4949148;28;20652;-76
2022/01/20 14:50:51;;;;;;;2.83;1.60;;;;;;;;;;4940967;29;20178;-76
2022/01/20 14:53:17;;;;;;;3.57;1.40;;;;;;;;;;4944480;29;20666;-75
2022/01/20 14:55:43;;;;;;;5.07;1.50;;;;;;;;;;4945714;28;20205;-77
2022/01/20 14:58:10;;;;;;;3.67;1.50;;;;;;;;;;4949020;28;20675;-80
2022/01/20 15:00:37;;;;;;;3.77;1.90;;;;;;;;;;4944563;29;20576;-79
2022/01/20 15:03:03;;;;;;;4.17;1.67;;;;;;;;;;4948720;29;20201;-79
2022/01/20 15:05:30;;;;;;;2.87;1.90;;;;;;;;;;4946755;28;20563;-78
2022/01/20 15:07:56;;;;;;;3.30;1.60;;;;;;;;;;4945126;28;20217;-80
2022/01/20 15:10:22;;;;;;;3.03;1.43;;;;;;;;;;4942151;28;20181;-78
2022/01/20 15:12:49;;;;;;;4.30;1.83;;;;;;;;;;4945175;28;20220;-78
2022/01/20 15:15:16;;;;;;;3.53;1.90;;;;;;;;;;4948542;29;20224;-77
2022/01/20 15:17:43;;;;;;;4.97;1.90;;;;;;;;;;4950551;28;20553;-77
2022/01/20 15:20:09;;;;;;;5.07;1.90;;;;;;;;;;4953934;28;20184;-77
2022/01/20 15:22:36;;;;;;;4.13;1.87;;;;;;;;;;4952419;29;20185;-77
2022/01/20 15:25:02;;;;;;;3.67;1.77;;;;;;;;;;4953009;28;20280;-77
2022/01/20 15:27:28;;;;;;;4.13;1.67;;;;;;;;;;4952901;28;20181;-77
2022/01/20 15:29:54;;;;;;;6.87;1.63;;;;;;;;;;4954105;28;20717;-77
2022/01/20 15:32:20;;;;;;;2.30;1.30;;;;;;;;;;4953089;28;20299;-77
2022/01/20 15:34:46;;;;;;;3.80;1.80;;;;;;;;;;4951696;28;20213;-77
2022/01/20 15:37:12;;;;;;;3.70;1.90;;;;;;;;;;4952025;29;20189;-77
2022/01/20 15:39:39;;;;;;;5.80;1.90;;;;;;;;;;4947134;29;20185;-76
2022/01/20 15:42:05;;;;;;;5.87;2.13;;;;;;;;;;4948869;28;20193;-77
2022/01/20 15:44:31;;;;;;;3.50;1.90;;;;;;;;;;4947792;28;20301;-76
2022/01/20 15:46:57;;;;;;;5.97;3.00;;;;;;;;;;4950929;28;20181;-76
2022/01/20 15:49:24;;;;;;;6.17;2.30;;;;;;;;;;4951908;28;20185;-76
2022/01/20 15:51:50;;;;;;;5.87;2.10;;;;;;;;;;4951473;28;20188;-76
2022/01/20 15:54:16;;;;;;;5.53;2.30;;;;;;;;;;4946501;28;20205;-76
2022/01/20 15:56:42;;;;;;;7.57;2.07;;;;;;;;;;4965124;28;20703;-76
2022/01/20 15:59:10;;;;;;;8.27;2.53;;;;;;;;;;4956099;29;20185;-76
2022/01/20 16:01:36;;;;;;;7.73;2.50;;;;;;;;;;4952702;28;20181;-76
2022/01/20 16:04:03;;;;;;;6.20;2.43;;;;;;;;;;4955495;28;20213;-76
2022/01/20 16:06:29;;;;;;;9.03;2.60;;;;;;;;;;4954644;28;20551;-76